sensor_id;sensor_type;location;lat;lon;timestamp;P1;durP1;ratioP1;P2;durP2;ratioP2
68614;SDS011;55593;51.994;5.882;2023-03-23T00:01:50;8.55;;;5.45;;
68614;SDS011;55593;51.994;5.882;2023-03-23T00:04:19;11.00;;;5.50;;
68614;SDS011;55593;51.994;5.882;2023-03-23T00:06:54;12.25;;;6.38;;
68614;SDS011;55593;51.994;5.882;2023-03-23T00:09:26;10.98;;;5.95;;
68614;SDS011;55593;51.994;5.882;2023-03-23T00:12:00;12.38;;;6.03;;
68614;SDS011;55593;51.994;5.882;2023-03-23T00:14:34;13.60;;;5.95;;
68614;SDS011;55593;51.994;5.882;2023-03-23T00:17:09;10.27;;;5.80;;
68614;SDS011;55593;51.994;5.882;2023-03-23T00:19:40;13.60;;;6.35;;
68614;SDS011;55593;51.994;5.882;2023-03-23T00:22:16;10.48;;;5.30;;
68614;SDS011;55593;51.994;5.882;2023-03-23T00:24:47;9.15;;;5.70;;
68614;SDS011;55593;51.994;5.882;2023-03-23T00:27:18;13.18;;;5.20;;
68614;SDS011;55593;51.994;5.882;2023-03-23T00:29:48;9.50;;;5.30;;
68614;SDS011;55593;51.994;5.882;2023-03-23T00:32:18;12.02;;;6.25;;
68614;SDS011;55593;51.994;5.882;2023-03-23T00:34:53;11.68;;;5.80;;
68614;SDS011;55593;51.994;5.882;2023-03-23T00:37:27;10.93;;;5.32;;
68614;SDS011;55593;51.994;5.882;2023-03-23T00:39:57;10.85;;;5.07;;
68614;SDS011;55593;51.994;5.882;2023-03-23T00:42:27;15.57;;;5.78;;
68614;SDS011;55593;51.994;5.882;2023-03-23T00:45:02;13.43;;;5.53;;
68614;SDS011;55593;51.994;5.882;2023-03-23T00:47:36;15.75;;;6.45;;
68614;SDS011;55593;51.994;5.882;2023-03-23T00:50:13;11.57;;;5.50;;
68614;SDS011;55593;51.994;5.882;2023-03-23T00:52:48;11.70;;;5.35;;
68614;SDS011;55593;51.994;5.882;2023-03-23T00:55:29;11.27;;;5.38;;
68614;SDS011;55593;51.994;5.882;2023-03-23T00:58:24;8.73;;;5.10;;
68614;SDS011;55593;51.994;5.882;2023-03-23T01:00:53;11.23;;;5.15;;
68614;SDS011;55593;51.994;5.882;2023-03-23T01:03:47;11.15;;;5.30;;
68614;SDS011;55593;51.994;5.882;2023-03-23T01:10:24;13.82;;;6.28;;
68614;SDS011;55593;51.994;5.882;2023-03-23T01:12:58;9.90;;;5.05;;
68614;SDS011;55593;51.994;5.882;2023-03-23T01:15:30;12.23;;;5.22;;
68614;SDS011;55593;51.994;5.882;2023-03-23T01:18:01;11.65;;;5.75;;
68614;SDS011;55593;51.994;5.882;2023-03-23T01:20:31;8.27;;;5.25;;
68614;SDS011;55593;51.994;5.882;2023-03-23T01:23:00;10.15;;;4.82;;
68614;SDS011;55593;51.994;5.882;2023-03-23T01:25:34;11.18;;;5.15;;
68614;SDS011;55593;51.994;5.882;2023-03-23T01:28:04;9.13;;;5.55;;
68614;SDS011;55593;51.994;5.882;2023-03-23T01:30:33;6.90;;;4.60;;
68614;SDS011;55593;51.994;5.882;2023-03-23T01:33:03;10.18;;;5.35;;
68614;SDS011;55593;51.994;5.882;2023-03-23T01:35:32;11.98;;;5.07;;
68614;SDS011;55593;51.994;5.882;2023-03-23T01:38:01;8.05;;;5.47;;
68614;SDS011;55593;51.994;5.882;2023-03-23T01:40:33;10.95;;;4.60;;
68614;SDS011;55593;51.994;5.882;2023-03-23T01:43:02;11.32;;;5.93;;
68614;SDS011;55593;51.994;5.882;2023-03-23T01:45:37;10.82;;;4.75;;
68614;SDS011;55593;51.994;5.882;2023-03-23T01:48:08;8.90;;;5.70;;
68614;SDS011;55593;51.994;5.882;2023-03-23T01:50:43;8.18;;;5.00;;
68614;SDS011;55593;51.994;5.882;2023-03-23T01:53:17;10.20;;;4.53;;
68614;SDS011;55593;51.994;5.882;2023-03-23T01:55:50;7.93;;;4.28;;
68614;SDS011;55593;51.994;5.882;2023-03-23T01:58:22;9.00;;;5.47;;
68614;SDS011;55593;51.994;5.882;2023-03-23T02:00:54;7.93;;;4.57;;
68614;SDS011;55593;51.994;5.882;2023-03-23T02:03:27;6.93;;;4.75;;
68614;SDS011;55593;51.994;5.882;2023-03-23T02:05:57;7.95;;;4.20;;
68614;SDS011;55593;51.994;5.882;2023-03-23T02:08:46;8.50;;;4.97;;
68614;SDS011;55593;51.994;5.882;2023-03-23T02:11:21;13.35;;;5.40;;
68614;SDS011;55593;51.994;5.882;2023-03-23T02:13:51;8.35;;;4.90;;
68614;SDS011;55593;51.994;5.882;2023-03-23T02:16:21;9.02;;;5.78;;
68614;SDS011;55593;51.994;5.882;2023-03-23T02:24:32;7.70;;;5.50;;
68614;SDS011;55593;51.994;5.882;2023-03-23T02:27:13;9.93;;;5.55;;
68614;SDS011;55593;51.994;5.882;2023-03-23T02:29:50;8.73;;;4.97;;
68614;SDS011;55593;51.994;5.882;2023-03-23T02:32:29;10.82;;;5.57;;
68614;SDS011;55593;51.994;5.882;2023-03-23T02:35:10;9.13;;;5.70;;
68614;SDS011;55593;51.994;5.882;2023-03-23T02:37:43;8.82;;;6.03;;
68614;SDS011;55593;51.994;5.882;2023-03-23T02:40:15;6.88;;;4.88;;
68614;SDS011;55593;51.994;5.882;2023-03-23T02:42:47;10.52;;;5.55;;
68614;SDS011;55593;51.994;5.882;2023-03-23T02:45:19;8.18;;;5.22;;
68614;SDS011;55593;51.994;5.882;2023-03-23T02:47:51;7.32;;;5.28;;
68614;SDS011;55593;51.994;5.882;2023-03-23T02:50:24;9.05;;;5.72;;
68614;SDS011;55593;51.994;5.882;2023-03-23T02:52:56;10.07;;;5.88;;
68614;SDS011;55593;51.994;5.882;2023-03-23T02:55:26;9.38;;;5.70;;
68614;SDS011;55593;51.994;5.882;2023-03-23T02:57:59;10.57;;;5.82;;
68614;SDS011;55593;51.994;5.882;2023-03-23T03:00:29;10.07;;;5.18;;
68614;SDS011;55593;51.994;5.882;2023-03-23T03:02:59;10.82;;;6.40;;
68614;SDS011;55593;51.994;5.882;2023-03-23T03:05:35;9.80;;;5.80;;
68614;SDS011;55593;51.994;5.882;2023-03-23T03:08:10;9.57;;;5.70;;
68614;SDS011;55593;51.994;5.882;2023-03-23T03:10:46;8.75;;;5.55;;
68614;SDS011;55593;51.994;5.882;2023-03-23T03:13:22;7.95;;;5.20;;
68614;SDS011;55593;51.994;5.882;2023-03-23T03:15:59;7.95;;;5.32;;
68614;SDS011;55593;51.994;5.882;2023-03-23T03:18:30;9.82;;;5.30;;
68614;SDS011;55593;51.994;5.882;2023-03-23T03:21:06;8.27;;;5.53;;
68614;SDS011;55593;51.994;5.882;2023-03-23T03:23:40;8.05;;;5.15;;
68614;SDS011;55593;51.994;5.882;2023-03-23T03:26:11;9.13;;;5.70;;
68614;SDS011;55593;51.994;5.882;2023-03-23T03:28:50;10.38;;;5.97;;
68614;SDS011;55593;51.994;5.882;2023-03-23T03:31:22;8.65;;;5.40;;
68614;SDS011;55593;51.994;5.882;2023-03-23T03:33:54;10.90;;;5.72;;
68614;SDS011;55593;51.994;5.882;2023-03-23T03:36:31;9.88;;;5.43;;
68614;SDS011;55593;51.994;5.882;2023-03-23T03:39:07;7.00;;;5.20;;
68614;SDS011;55593;51.994;5.882;2023-03-23T03:41:38;8.70;;;5.60;;
68614;SDS011;55593;51.994;5.882;2023-03-23T03:44:08;10.75;;;6.10;;
68614;SDS011;55593;51.994;5.882;2023-03-23T03:46:38;8.55;;;5.35;;
68614;SDS011;55593;51.994;5.882;2023-03-23T03:49:08;9.73;;;5.13;;
68614;SDS011;55593;51.994;5.882;2023-03-23T03:51:43;14.93;;;6.18;;
68614;SDS011;55593;51.994;5.882;2023-03-23T03:54:19;9.25;;;5.95;;
68614;SDS011;55593;51.994;5.882;2023-03-23T03:56:48;10.88;;;5.00;;
68614;SDS011;55593;51.994;5.882;2023-03-23T03:59:47;8.65;;;5.38;;
68614;SDS011;55593;51.994;5.882;2023-03-23T04:02:35;11.13;;;5.90;;
68614;SDS011;55593;51.994;5.882;2023-03-23T04:05:04;7.68;;;5.30;;
68614;SDS011;55593;51.994;5.882;2023-03-23T04:07:37;10.60;;;5.88;;
68614;SDS011;55593;51.994;5.882;2023-03-23T04:10:07;9.20;;;5.32;;
68614;SDS011;55593;51.994;5.882;2023-03-23T04:12:40;11.23;;;4.88;;
68614;SDS011;55593;51.994;5.882;2023-03-23T04:15:30;9.40;;;5.43;;
68614;SDS011;55593;51.994;5.882;2023-03-23T04:17:59;7.32;;;4.78;;
68614;SDS011;55593;51.994;5.882;2023-03-23T04:20:30;9.13;;;4.90;;
68614;SDS011;55593;51.994;5.882;2023-03-23T04:23:03;8.35;;;4.22;;
68614;SDS011;55593;51.994;5.882;2023-03-23T04:25:34;7.55;;;4.95;;
68614;SDS011;55593;51.994;5.882;2023-03-23T04:28:05;8.10;;;4.82;;
68614;SDS011;55593;51.994;5.882;2023-03-23T04:30:42;9.52;;;5.00;;
68614;SDS011;55593;51.994;5.882;2023-03-23T04:33:12;9.85;;;4.53;;
68614;SDS011;55593;51.994;5.882;2023-03-23T04:35:46;7.43;;;4.10;;
68614;SDS011;55593;51.994;5.882;2023-03-23T04:38:40;9.00;;;4.60;;
68614;SDS011;55593;51.994;5.882;2023-03-23T04:41:16;8.13;;;4.90;;
68614;SDS011;55593;51.994;5.882;2023-03-23T04:43:54;6.28;;;4.22;;
68614;SDS011;55593;51.994;5.882;2023-03-23T04:46:40;8.55;;;4.25;;
68614;SDS011;55593;51.994;5.882;2023-03-23T04:49:12;10.43;;;3.80;;
68614;SDS011;55593;51.994;5.882;2023-03-23T04:51:47;8.88;;;4.07;;
68614;SDS011;55593;51.994;5.882;2023-03-23T04:54:33;7.53;;;3.80;;
68614;SDS011;55593;51.994;5.882;2023-03-23T04:57:02;7.82;;;4.05;;
68614;SDS011;55593;51.994;5.882;2023-03-23T04:59:32;8.70;;;3.67;;
68614;SDS011;55593;51.994;5.882;2023-03-23T05:02:08;9.38;;;3.92;;
68614;SDS011;55593;51.994;5.882;2023-03-23T05:04:39;10.45;;;3.65;;
68614;SDS011;55593;51.994;5.882;2023-03-23T05:07:13;8.40;;;3.50;;
68614;SDS011;55593;51.994;5.882;2023-03-23T05:09:49;9.75;;;4.03;;
68614;SDS011;55593;51.994;5.882;2023-03-23T05:12:22;8.18;;;3.45;;
68614;SDS011;55593;51.994;5.882;2023-03-23T05:14:54;9.55;;;3.33;;
68614;SDS011;55593;51.994;5.882;2023-03-23T05:17:26;13.02;;;3.53;;
68614;SDS011;55593;51.994;5.882;2023-03-23T05:19:58;12.75;;;3.47;;
68614;SDS011;55593;51.994;5.882;2023-03-23T05:22:47;11.60;;;3.97;;
68614;SDS011;55593;51.994;5.882;2023-03-23T05:25:25;9.55;;;4.07;;
68614;SDS011;55593;51.994;5.882;2023-03-23T05:28:01;8.00;;;3.25;;
68614;SDS011;55593;51.994;5.882;2023-03-23T05:30:59;10.63;;;3.13;;
68614;SDS011;55593;51.994;5.882;2023-03-23T05:33:31;18.63;;;3.60;;
68614;SDS011;55593;51.994;5.882;2023-03-23T05:36:15;13.52;;;3.42;;
68614;SDS011;55593;51.994;5.882;2023-03-23T05:39:07;10.80;;;3.67;;
68614;SDS011;55593;51.994;5.882;2023-03-23T05:41:58;9.88;;;3.25;;
68614;SDS011;55593;51.994;5.882;2023-03-23T05:44:39;10.13;;;2.60;;
68614;SDS011;55593;51.994;5.882;2023-03-23T05:47:10;14.73;;;2.80;;
68614;SDS011;55593;51.994;5.882;2023-03-23T05:49:46;10.98;;;2.67;;
68614;SDS011;55593;51.994;5.882;2023-03-23T05:52:18;12.80;;;2.65;;
68614;SDS011;55593;51.994;5.882;2023-03-23T05:54:50;11.60;;;2.67;;
68614;SDS011;55593;51.994;5.882;2023-03-23T05:57:23;17.45;;;3.28;;
68614;SDS011;55593;51.994;5.882;2023-03-23T06:00:07;11.07;;;2.80;;
68614;SDS011;55593;51.994;5.882;2023-03-23T06:02:47;7.88;;;2.70;;
68614;SDS011;55593;51.994;5.882;2023-03-23T06:05:26;16.38;;;2.95;;
68614;SDS011;55593;51.994;5.882;2023-03-23T06:07:59;12.45;;;3.33;;
68614;SDS011;55593;51.994;5.882;2023-03-23T06:10:29;9.45;;;2.72;;
68614;SDS011;55593;51.994;5.882;2023-03-23T06:13:05;16.10;;;2.75;;
68614;SDS011;55593;51.994;5.882;2023-03-23T06:16:00;7.25;;;2.33;;
68614;SDS011;55593;51.994;5.882;2023-03-23T06:18:48;13.02;;;3.17;;
68614;SDS011;55593;51.994;5.882;2023-03-23T06:21:31;8.18;;;2.00;;
68614;SDS011;55593;51.994;5.882;2023-03-23T06:24:14;16.00;;;3.50;;
68614;SDS011;55593;51.994;5.882;2023-03-23T06:26:44;8.02;;;2.20;;
68614;SDS011;55593;51.994;5.882;2023-03-23T06:29:20;11.30;;;2.92;;
68614;SDS011;55593;51.994;5.882;2023-03-23T06:34:25;11.40;;;2.35;;
68614;SDS011;55593;51.994;5.882;2023-03-23T06:37:14;12.05;;;3.00;;
68614;SDS011;55593;51.994;5.882;2023-03-23T06:39:51;10.38;;;2.72;;
68614;SDS011;55593;51.994;5.882;2023-03-23T06:42:30;29.85;;;2.67;;
68614;SDS011;55593;51.994;5.882;2023-03-23T06:45:21;13.20;;;2.78;;
68614;SDS011;55593;51.994;5.882;2023-03-23T06:47:58;9.63;;;2.85;;
68614;SDS011;55593;51.994;5.882;2023-03-23T06:50:29;13.52;;;2.70;;
68614;SDS011;55593;51.994;5.882;2023-03-23T06:52:59;13.10;;;2.25;;
68614;SDS011;55593;51.994;5.882;2023-03-23T06:55:28;9.82;;;2.67;;
68614;SDS011;55593;51.994;5.882;2023-03-23T06:57:58;9.43;;;2.70;;
68614;SDS011;55593;51.994;5.882;2023-03-23T07:00:30;10.95;;;2.35;;
68614;SDS011;55593;51.994;5.882;2023-03-23T07:02:59;18.15;;;2.83;;
68614;SDS011;55593;51.994;5.882;2023-03-23T07:05:30;10.20;;;2.60;;
68614;SDS011;55593;51.994;5.882;2023-03-23T07:07:59;8.32;;;2.42;;
68614;SDS011;55593;51.994;5.882;2023-03-23T07:10:33;14.38;;;3.33;;
68614;SDS011;55593;51.994;5.882;2023-03-23T07:13:03;13.85;;;3.00;;
68614;SDS011;55593;51.994;5.882;2023-03-23T07:15:46;12.13;;;3.35;;
68614;SDS011;55593;51.994;5.882;2023-03-23T07:18:16;11.05;;;3.03;;
68614;SDS011;55593;51.994;5.882;2023-03-23T07:20:48;16.92;;;2.97;;
68614;SDS011;55593;51.994;5.882;2023-03-23T07:23:19;13.90;;;3.00;;
68614;SDS011;55593;51.994;5.882;2023-03-23T07:25:57;11.48;;;3.15;;
68614;SDS011;55593;51.994;5.882;2023-03-23T07:28:33;9.15;;;3.35;;
68614;SDS011;55593;51.994;5.882;2023-03-23T07:31:16;13.63;;;4.03;;
68614;SDS011;55593;51.994;5.882;2023-03-23T07:33:46;9.40;;;2.67;;
68614;SDS011;55593;51.994;5.882;2023-03-23T07:36:16;14.02;;;4.00;;
68614;SDS011;55593;51.994;5.882;2023-03-23T07:38:46;10.23;;;3.28;;
68614;SDS011;55593;51.994;5.882;2023-03-23T07:41:16;7.93;;;2.45;;
68614;SDS011;55593;51.994;5.882;2023-03-23T07:43:45;13.07;;;2.60;;
68614;SDS011;55593;51.994;5.882;2023-03-23T07:46:17;8.73;;;2.63;;
68614;SDS011;55593;51.994;5.882;2023-03-23T07:48:55;9.15;;;2.25;;
68614;SDS011;55593;51.994;5.882;2023-03-23T07:51:34;7.20;;;2.10;;
68614;SDS011;55593;51.994;5.882;2023-03-23T07:54:04;9.02;;;1.92;;
68614;SDS011;55593;51.994;5.882;2023-03-23T07:57:00;10.88;;;2.17;;
68614;SDS011;55593;51.994;5.882;2023-03-23T07:59:32;6.60;;;2.00;;
68614;SDS011;55593;51.994;5.882;2023-03-23T08:02:04;10.25;;;2.47;;
68614;SDS011;55593;51.994;5.882;2023-03-23T08:04:50;7.05;;;2.10;;
68614;SDS011;55593;51.994;5.882;2023-03-23T08:08:00;11.95;;;2.40;;
68614;SDS011;55593;51.994;5.882;2023-03-23T08:10:56;7.72;;;2.83;;
68614;SDS011;55593;51.994;5.882;2023-03-23T08:13:50;13.00;;;3.50;;
68614;SDS011;55593;51.994;5.882;2023-03-23T08:16:44;10.40;;;4.00;;
68614;SDS011;55593;51.994;5.882;2023-03-23T08:19:43;11.93;;;2.47;;
68614;SDS011;55593;51.994;5.882;2023-03-23T08:22:32;10.20;;;2.55;;
68614;SDS011;55593;51.994;5.882;2023-03-23T08:25:24;8.50;;;2.67;;
68614;SDS011;55593;51.994;5.882;2023-03-23T08:28:15;8.50;;;2.88;;
68614;SDS011;55593;51.994;5.882;2023-03-23T08:31:12;10.27;;;3.13;;
68614;SDS011;55593;51.994;5.882;2023-03-23T08:33:51;11.10;;;3.72;;
68614;SDS011;55593;51.994;5.882;2023-03-23T08:36:45;10.27;;;3.20;;
68614;SDS011;55593;51.994;5.882;2023-03-23T08:39:39;13.38;;;2.80;;
68614;SDS011;55593;51.994;5.882;2023-03-23T08:42:31;12.30;;;2.90;;
68614;SDS011;55593;51.994;5.882;2023-03-23T08:45:29;10.48;;;2.88;;
68614;SDS011;55593;51.994;5.882;2023-03-23T08:48:17;9.45;;;2.70;;
68614;SDS011;55593;51.994;5.882;2023-03-23T08:51:05;7.75;;;2.75;;
68614;SDS011;55593;51.994;5.882;2023-03-23T08:54:08;10.10;;;3.45;;
68614;SDS011;55593;51.994;5.882;2023-03-23T08:56:55;10.98;;;2.80;;
68614;SDS011;55593;51.994;5.882;2023-03-23T08:59:50;8.00;;;2.83;;
68614;SDS011;55593;51.994;5.882;2023-03-23T09:02:40;10.80;;;2.53;;
68614;SDS011;55593;51.994;5.882;2023-03-23T09:05:21;12.27;;;4.20;;
68614;SDS011;55593;51.994;5.882;2023-03-23T09:08:01;11.65;;;4.20;;
68614;SDS011;55593;51.994;5.882;2023-03-23T09:10:33;11.05;;;2.63;;
68614;SDS011;55593;51.994;5.882;2023-03-23T09:13:06;7.28;;;2.10;;
68614;SDS011;55593;51.994;5.882;2023-03-23T09:15:40;8.10;;;2.53;;
68614;SDS011;55593;51.994;5.882;2023-03-23T09:18:09;9.50;;;2.28;;
68614;SDS011;55593;51.994;5.882;2023-03-23T09:20:39;8.20;;;2.25;;
68614;SDS011;55593;51.994;5.882;2023-03-23T09:23:09;8.63;;;2.28;;
68614;SDS011;55593;51.994;5.882;2023-03-23T09:25:41;7.18;;;2.47;;
68614;SDS011;55593;51.994;5.882;2023-03-23T09:28:11;6.13;;;1.83;;
68614;SDS011;55593;51.994;5.882;2023-03-23T09:30:40;5.22;;;1.80;;
68614;SDS011;55593;51.994;5.882;2023-03-23T09:33:10;7.25;;;1.80;;
68614;SDS011;55593;51.994;5.882;2023-03-23T09:35:39;9.15;;;2.30;;
68614;SDS011;55593;51.994;5.882;2023-03-23T09:38:09;9.55;;;2.45;;
68614;SDS011;55593;51.994;5.882;2023-03-23T09:40:45;7.68;;;1.95;;
68614;SDS011;55593;51.994;5.882;2023-03-23T09:43:22;15.35;;;2.55;;
68614;SDS011;55593;51.994;5.882;2023-03-23T09:46:02;7.45;;;2.10;;
68614;SDS011;55593;51.994;5.882;2023-03-23T09:48:38;10.15;;;2.38;;
68614;SDS011;55593;51.994;5.882;2023-03-23T09:51:16;10.75;;;2.00;;
68614;SDS011;55593;51.994;5.882;2023-03-23T09:53:54;11.98;;;2.38;;
68614;SDS011;55593;51.994;5.882;2023-03-23T09:56:28;10.27;;;2.38;;
68614;SDS011;55593;51.994;5.882;2023-03-23T09:58:59;8.50;;;2.83;;
68614;SDS011;55593;51.994;5.882;2023-03-23T10:01:32;9.05;;;2.47;;
68614;SDS011;55593;51.994;5.882;2023-03-23T10:04:07;11.50;;;2.42;;
68614;SDS011;55593;51.994;5.882;2023-03-23T10:06:41;11.45;;;2.95;;
68614;SDS011;55593;51.994;5.882;2023-03-23T10:09:12;9.27;;;2.45;;
68614;SDS011;55593;51.994;5.882;2023-03-23T10:11:49;8.35;;;2.10;;
68614;SDS011;55593;51.994;5.882;2023-03-23T10:14:26;19.55;;;3.22;;
68614;SDS011;55593;51.994;5.882;2023-03-23T10:17:02;11.60;;;2.95;;
68614;SDS011;55593;51.994;5.882;2023-03-23T10:22:09;12.18;;;2.50;;
68614;SDS011;55593;51.994;5.882;2023-03-23T10:24:41;13.70;;;3.42;;
68614;SDS011;55593;51.994;5.882;2023-03-23T10:27:19;14.15;;;2.95;;
68614;SDS011;55593;51.994;5.882;2023-03-23T10:29:55;12.95;;;3.45;;
68614;SDS011;55593;51.994;5.882;2023-03-23T10:35:18;13.65;;;3.13;;
68614;SDS011;55593;51.994;5.882;2023-03-23T10:37:50;15.55;;;3.78;;
68614;SDS011;55593;51.994;5.882;2023-03-23T10:40:23;13.52;;;3.25;;
68614;SDS011;55593;51.994;5.882;2023-03-23T10:42:58;12.10;;;3.35;;
68614;SDS011;55593;51.994;5.882;2023-03-23T10:45:28;9.98;;;3.13;;
68614;SDS011;55593;51.994;5.882;2023-03-23T10:48:01;16.50;;;3.38;;
68614;SDS011;55593;51.994;5.882;2023-03-23T10:50:37;13.32;;;3.20;;
68614;SDS011;55593;51.994;5.882;2023-03-23T10:53:11;11.48;;;2.80;;
68614;SDS011;55593;51.994;5.882;2023-03-23T10:55:44;12.00;;;2.92;;
68614;SDS011;55593;51.994;5.882;2023-03-23T10:58:23;12.75;;;2.80;;
68614;SDS011;55593;51.994;5.882;2023-03-23T11:00:54;14.30;;;3.00;;
68614;SDS011;55593;51.994;5.882;2023-03-23T11:03:37;11.65;;;3.00;;
68614;SDS011;55593;51.994;5.882;2023-03-23T11:06:11;14.75;;;3.40;;
68614;SDS011;55593;51.994;5.882;2023-03-23T11:08:47;10.77;;;2.97;;
68614;SDS011;55593;51.994;5.882;2023-03-23T11:11:25;14.30;;;3.13;;
68614;SDS011;55593;51.994;5.882;2023-03-23T11:14:02;13.40;;;3.60;;
68614;SDS011;55593;51.994;5.882;2023-03-23T11:16:42;10.50;;;2.72;;
68614;SDS011;55593;51.994;5.882;2023-03-23T11:19:13;11.23;;;2.90;;
68614;SDS011;55593;51.994;5.882;2023-03-23T11:21:45;11.35;;;2.95;;
68614;SDS011;55593;51.994;5.882;2023-03-23T11:24:16;10.77;;;3.17;;
68614;SDS011;55593;51.994;5.882;2023-03-23T11:26:45;11.65;;;3.17;;
68614;SDS011;55593;51.994;5.882;2023-03-23T11:29:17;11.63;;;2.80;;
68614;SDS011;55593;51.994;5.882;2023-03-23T11:31:49;12.50;;;2.40;;
68614;SDS011;55593;51.994;5.882;2023-03-23T11:34:20;9.30;;;3.35;;
68614;SDS011;55593;51.994;5.882;2023-03-23T11:36:51;11.15;;;3.63;;
68614;SDS011;55593;51.994;5.882;2023-03-23T11:39:23;13.35;;;3.38;;
68614;SDS011;55593;51.994;5.882;2023-03-23T11:41:54;9.95;;;3.13;;
68614;SDS011;55593;51.994;5.882;2023-03-23T11:44:32;9.68;;;2.33;;
68614;SDS011;55593;51.994;5.882;2023-03-23T11:47:04;8.85;;;2.58;;
68614;SDS011;55593;51.994;5.882;2023-03-23T11:49:40;10.45;;;2.53;;
68614;SDS011;55593;51.994;5.882;2023-03-23T11:52:15;15.35;;;2.70;;
68614;SDS011;55593;51.994;5.882;2023-03-23T11:54:52;9.55;;;2.80;;
68614;SDS011;55593;51.994;5.882;2023-03-23T11:57:24;8.32;;;3.03;;
68614;SDS011;55593;51.994;5.882;2023-03-23T11:59:59;10.88;;;2.40;;
68614;SDS011;55593;51.994;5.882;2023-03-23T12:02:40;13.77;;;3.20;;
68614;SDS011;55593;51.994;5.882;2023-03-23T12:05:36;9.00;;;2.40;;
68614;SDS011;55593;51.994;5.882;2023-03-23T12:08:14;12.32;;;3.20;;
68614;SDS011;55593;51.994;5.882;2023-03-23T12:10:52;12.55;;;3.28;;
68614;SDS011;55593;51.994;5.882;2023-03-23T12:13:29;11.80;;;3.03;;
68614;SDS011;55593;51.994;5.882;2023-03-23T12:16:08;10.77;;;2.65;;
68614;SDS011;55593;51.994;5.882;2023-03-23T12:18:44;9.75;;;2.70;;
68614;SDS011;55593;51.994;5.882;2023-03-23T12:21:18;9.60;;;2.85;;
68614;SDS011;55593;51.994;5.882;2023-03-23T12:23:52;12.05;;;2.67;;
68614;SDS011;55593;51.994;5.882;2023-03-23T12:26:25;12.85;;;3.50;;
68614;SDS011;55593;51.994;5.882;2023-03-23T12:29:10;14.15;;;3.88;;
68614;SDS011;55593;51.994;5.882;2023-03-23T12:31:51;10.50;;;2.47;;
68614;SDS011;55593;51.994;5.882;2023-03-23T12:34:29;11.45;;;2.80;;
68614;SDS011;55593;51.994;5.882;2023-03-23T12:37:09;14.75;;;3.75;;
68614;SDS011;55593;51.994;5.882;2023-03-23T12:39:54;10.18;;;2.90;;
68614;SDS011;55593;51.994;5.882;2023-03-23T12:42:39;15.38;;;4.55;;
68614;SDS011;55593;51.994;5.882;2023-03-23T12:45:18;11.18;;;3.17;;
68614;SDS011;55593;51.994;5.882;2023-03-23T12:50:26;10.98;;;3.72;;
68614;SDS011;55593;51.994;5.882;2023-03-23T12:52:59;12.90;;;3.63;;
68614;SDS011;55593;51.994;5.882;2023-03-23T12:55:32;11.55;;;4.10;;
68614;SDS011;55593;51.994;5.882;2023-03-23T12:58:06;11.93;;;3.03;;
68614;SDS011;55593;51.994;5.882;2023-03-23T13:00:48;16.67;;;3.08;;
68614;SDS011;55593;51.994;5.882;2023-03-23T13:03:27;12.18;;;3.63;;
68614;SDS011;55593;51.994;5.882;2023-03-23T13:06:00;12.70;;;3.30;;
68614;SDS011;55593;51.994;5.882;2023-03-23T13:08:34;15.20;;;3.60;;
68614;SDS011;55593;51.994;5.882;2023-03-23T13:11:08;9.10;;;3.20;;
68614;SDS011;55593;51.994;5.882;2023-03-23T13:13:42;7.60;;;2.90;;
68614;SDS011;55593;51.994;5.882;2023-03-23T13:16:18;10.65;;;2.47;;
68614;SDS011;55593;51.994;5.882;2023-03-23T13:18:59;12.02;;;3.38;;
68614;SDS011;55593;51.994;5.882;2023-03-23T13:21:34;7.97;;;2.22;;
68614;SDS011;55593;51.994;5.882;2023-03-23T13:24:10;11.38;;;3.00;;
68614;SDS011;55593;51.994;5.882;2023-03-23T13:26:43;9.63;;;2.63;;
68614;SDS011;55593;51.994;5.882;2023-03-23T13:29:13;6.97;;;2.60;;
68614;SDS011;55593;51.994;5.882;2023-03-23T13:31:45;8.45;;;2.17;;
68614;SDS011;55593;51.994;5.882;2023-03-23T13:34:18;10.88;;;2.63;;
68614;SDS011;55593;51.994;5.882;2023-03-23T13:36:53;14.45;;;2.50;;
68614;SDS011;55593;51.994;5.882;2023-03-23T13:39:25;10.23;;;1.80;;
68614;SDS011;55593;51.994;5.882;2023-03-23T13:42:00;6.95;;;2.20;;
68614;SDS011;55593;51.994;5.882;2023-03-23T13:44:41;9.55;;;3.13;;
68614;SDS011;55593;51.994;5.882;2023-03-23T13:47:20;9.82;;;2.90;;
68614;SDS011;55593;51.994;5.882;2023-03-23T13:49:57;6.80;;;2.67;;
68614;SDS011;55593;51.994;5.882;2023-03-23T13:52:36;11.75;;;3.50;;
68614;SDS011;55593;51.994;5.882;2023-03-23T13:58:09;8.70;;;2.65;;
68614;SDS011;55593;51.994;5.882;2023-03-23T14:00:46;8.43;;;2.92;;
68614;SDS011;55593;51.994;5.882;2023-03-23T14:03:18;6.85;;;2.45;;
68614;SDS011;55593;51.994;5.882;2023-03-23T14:06:03;8.23;;;2.70;;
68614;SDS011;55593;51.994;5.882;2023-03-23T14:08:52;9.02;;;3.88;;
68614;SDS011;55593;51.994;5.882;2023-03-23T14:11:23;10.10;;;2.75;;
68614;SDS011;55593;51.994;5.882;2023-03-23T14:13:58;6.75;;;2.58;;
68614;SDS011;55593;51.994;5.882;2023-03-23T14:16:39;10.98;;;3.17;;
68614;SDS011;55593;51.994;5.882;2023-03-23T14:19:14;9.30;;;3.38;;
68614;SDS011;55593;51.994;5.882;2023-03-23T14:21:51;7.07;;;2.97;;
68614;SDS011;55593;51.994;5.882;2023-03-23T14:24:25;9.30;;;3.80;;
68614;SDS011;55593;51.994;5.882;2023-03-23T14:27:01;15.02;;;4.38;;
68614;SDS011;55593;51.994;5.882;2023-03-23T14:29:31;9.13;;;3.55;;
68614;SDS011;55593;51.994;5.882;2023-03-23T14:32:00;9.20;;;4.03;;
68614;SDS011;55593;51.994;5.882;2023-03-23T14:34:30;10.20;;;6.78;;
68614;SDS011;55593;51.994;5.882;2023-03-23T14:37:03;8.73;;;4.57;;
68614;SDS011;55593;51.994;5.882;2023-03-23T14:39:32;12.65;;;4.82;;
68614;SDS011;55593;51.994;5.882;2023-03-23T14:42:03;9.30;;;5.50;;
68614;SDS011;55593;51.994;5.882;2023-03-23T14:44:35;16.15;;;5.53;;
68614;SDS011;55593;51.994;5.882;2023-03-23T14:47:10;15.73;;;4.38;;
68614;SDS011;55593;51.994;5.882;2023-03-23T14:49:44;17.90;;;11.60;;
68614;SDS011;55593;51.994;5.882;2023-03-23T14:52:17;8.88;;;2.75;;
68614;SDS011;55593;51.994;5.882;2023-03-23T14:54:46;9.55;;;3.28;;
68614;SDS011;55593;51.994;5.882;2023-03-23T14:57:16;14.55;;;7.70;;
68614;SDS011;55593;51.994;5.882;2023-03-23T14:59:47;11.35;;;4.13;;
68614;SDS011;55593;51.994;5.882;2023-03-23T15:02:18;14.43;;;5.88;;
68614;SDS011;55593;51.994;5.882;2023-03-23T15:04:52;11.27;;;3.72;;
68614;SDS011;55593;51.994;5.882;2023-03-23T15:07:26;12.13;;;2.50;;
68614;SDS011;55593;51.994;5.882;2023-03-23T15:09:57;13.98;;;3.40;;
68614;SDS011;55593;51.994;5.882;2023-03-23T15:12:28;12.30;;;3.83;;
68614;SDS011;55593;51.994;5.882;2023-03-23T15:14:59;14.30;;;3.80;;
68614;SDS011;55593;51.994;5.882;2023-03-23T15:17:30;13.45;;;3.58;;
68614;SDS011;55593;51.994;5.882;2023-03-23T15:20:08;12.73;;;3.40;;
68614;SDS011;55593;51.994;5.882;2023-03-23T15:22:44;11.48;;;2.95;;
68614;SDS011;55593;51.994;5.882;2023-03-23T15:25:17;10.23;;;2.42;;
68614;SDS011;55593;51.994;5.882;2023-03-23T15:27:51;9.38;;;2.95;;
68614;SDS011;55593;51.994;5.882;2023-03-23T15:30:29;14.68;;;2.70;;
68614;SDS011;55593;51.994;5.882;2023-03-23T15:33:01;11.63;;;3.00;;
68614;SDS011;55593;51.994;5.882;2023-03-23T15:35:36;12.43;;;2.67;;
68614;SDS011;55593;51.994;5.882;2023-03-23T15:38:14;9.20;;;2.30;;
68614;SDS011;55593;51.994;5.882;2023-03-23T15:40:48;11.43;;;2.85;;
68614;SDS011;55593;51.994;5.882;2023-03-23T15:43:19;12.70;;;2.33;;
68614;SDS011;55593;51.994;5.882;2023-03-23T15:45:53;12.90;;;3.03;;
68614;SDS011;55593;51.994;5.882;2023-03-23T15:48:26;10.63;;;2.63;;
68614;SDS011;55593;51.994;5.882;2023-03-23T15:50:56;10.90;;;2.60;;
68614;SDS011;55593;51.994;5.882;2023-03-23T15:53:29;11.20;;;2.92;;
68614;SDS011;55593;51.994;5.882;2023-03-23T15:56:03;18.13;;;7.93;;